Time;durP1;ratioP1;P1;durP2;ratioP2;P2;SDS_P1;SDS_P2;PMS_P1;PMS_P2;Temp;Humidity;BMP_temperature;BMP_pressure;BME280_temperature;BME280_humidity;BME280_pressure;Samples;Min_cycle;Max_cycle;Signal;HPM_P1;HPM_P2
2021/11/19 00:00:16;;;;;;;19.45;10.68;;;11.90;99.90;;;;;;4881088;29;20048;-79
2021/11/19 00:02:42;;;;;;;15.93;11.25;;;11.90;99.90;;;;;;4898396;29;20032;-84
2021/11/19 00:05:09;;;;;;;17.02;11.27;;;11.90;99.90;;;;;;4880824;29;20401;-82
2021/11/19 00:07:34;;;;;;;19.30;11.35;;;11.90;99.90;;;;;;4880597;29;20051;-78
2021/11/19 00:10:00;;;;;;;24.80;13.13;;;11.90;99.90;;;;;;4881061;29;20556;-82
2021/11/19 00:12:26;;;;;;;20.63;13.05;;;11.90;99.90;;;;;;4881600;29;20422;-81
2021/11/19 00:14:52;;;;;;;18.08;11.10;;;11.80;99.90;;;;;;4880559;29;20033;-84
2021/11/19 00:17:17;;;;;;;23.38;12.88;;;11.80;99.90;;;;;;4880862;29;20433;-86
2021/11/19 00:19:45;;;;;;;16.73;11.15;;;11.80;99.90;;;;;;4881279;29;20027;-81
2021/11/19 00:22:13;;;;;;;21.02;12.30;;;11.80;99.90;;;;;;4879982;29;20123;-80
2021/11/19 00:24:39;;;;;;;22.67;13.02;;;11.80;99.90;;;;;;4897949;29;20056;-83
2021/11/19 00:27:08;;;;;;;17.13;11.40;;;11.80;99.90;;;;;;4880572;29;20523;-82
2021/11/19 00:29:34;;;;;;;23.10;13.05;;;11.80;99.90;;;;;;4880717;29;20025;-78
2021/11/19 00:31:59;;;;;;;23.05;13.05;;;11.80;99.90;;;;;;4880886;29;20108;-78
2021/11/19 00:34:25;;;;;;;17.08;11.23;;;11.80;99.90;;;;;;4881439;29;20025;-82
2021/11/19 00:36:55;;;;;;;26.00;13.32;;;11.80;99.90;;;;;;4879791;29;20055;-78
2021/11/19 00:39:21;;;;;;;21.13;12.77;;;11.80;99.90;;;;;;4880701;29;20123;-81
2021/11/19 00:41:47;;;;;;;22.27;13.10;;;11.80;99.90;;;;;;4880643;29;20024;-80
2021/11/19 00:44:14;;;;;;;20.23;12.40;;;11.80;99.90;;;;;;4879980;29;20380;-82
2021/11/19 00:46:41;;;;;;;20.27;11.85;;;11.80;99.90;;;;;;4897023;29;20112;-80
2021/11/19 00:49:08;;;;;;;21.77;13.30;;;11.80;99.90;;;;;;4879268;29;20025;-83
2021/11/19 00:51:37;;;;;;;19.90;12.48;;;11.80;99.90;;;;;;4897361;29;20025;-82
2021/11/19 00:54:03;;;;;;;19.60;11.88;;;11.80;99.90;;;;;;4879892;29;20016;-81
2021/11/19 00:56:36;;;;;;;19.90;11.55;;;11.90;99.90;;;;;;4896978;29;20041;-80
2021/11/19 00:59:02;;;;;;;22.98;14.00;;;11.90;99.90;;;;;;4896833;29;20103;-80
2021/11/19 01:01:35;;;;;;;19.92;12.73;;;11.90;99.90;;;;;;4879787;29;20028;-78
2021/11/19 01:04:03;;;;;;;18.88;11.75;;;11.90;99.90;;;;;;4879498;29;20111;-78
2021/11/19 01:06:29;;;;;;;18.90;12.80;;;11.90;99.90;;;;;;4880086;29;20036;-83
2021/11/19 01:08:56;;;;;;;17.63;12.95;;;11.90;99.90;;;;;;4880074;29;20031;-79
2021/11/19 01:11:24;;;;;;;19.67;13.88;;;11.90;99.90;;;;;;4896246;29;20028;-83
2021/11/19 01:13:52;;;;;;;17.55;12.50;;;11.90;99.90;;;;;;4880149;29;20029;-82
2021/11/19 01:16:22;;;;;;;17.13;12.27;;;11.90;99.90;;;;;;4879814;29;20045;-81
2021/11/19 01:18:52;;;;;;;16.45;13.02;;;11.90;99.90;;;;;;4879341;29;20024;-79
2021/11/19 01:21:25;;;;;;;21.92;13.57;;;11.90;99.90;;;;;;4877439;29;20036;-80
2021/11/19 01:23:51;;;;;;;20.50;14.55;;;11.90;99.90;;;;;;4880076;29;20405;-79
2021/11/19 01:26:21;;;;;;;14.93;11.50;;;11.90;99.90;;;;;;4879098;29;20031;-81
2021/11/19 01:28:53;;;;;;;23.55;14.95;;;11.90;99.90;;;;;;4879874;29;20024;-83
2021/11/19 01:31:22;;;;;;;19.90;13.70;;;12.00;99.90;;;;;;4895790;29;20032;-84
2021/11/19 01:33:48;;;;;;;21.08;14.93;;;11.90;99.90;;;;;;4879756;29;20477;-84
2021/11/19 01:36:15;;;;;;;20.30;14.80;;;12.00;99.90;;;;;;4879424;29;20040;-82
2021/11/19 01:38:42;;;;;;;19.92;13.38;;;11.90;99.90;;;;;;4877958;29;20536;-79
2021/11/19 01:41:17;;;;;;;20.63;14.13;;;11.90;99.90;;;;;;4879335;29;20381;-79
2021/11/19 01:43:44;;;;;;;18.98;14.27;;;11.90;99.90;;;;;;4879787;29;20032;-81
2021/11/19 01:46:13;;;;;;;20.23;14.20;;;12.00;99.90;;;;;;4878988;29;20123;-80
2021/11/19 01:48:42;;;;;;;17.92;12.77;;;12.00;99.90;;;;;;4880319;29;20503;-79
2021/11/19 01:51:43;;;;;;;17.85;13.52;;;11.90;99.90;;;;;;4896514;29;20036;-80
2021/11/19 01:54:14;;;;;;;17.80;13.63;;;12.00;99.90;;;;;;4895540;29;20040;-78
2021/11/19 01:57:01;;;;;;;19.00;12.90;;;12.00;99.90;;;;;;4879615;29;20048;-80
2021/11/19 01:59:41;;;;;;;15.38;12.85;;;12.00;99.90;;;;;;4879320;29;20067;-80
2021/11/19 02:02:14;;;;;;;18.48;14.02;;;12.00;99.90;;;;;;4879119;29;20469;-80
2021/11/19 02:04:49;;;;;;;20.25;14.30;;;12.10;99.90;;;;;;4879584;29;20115;-79
2021/11/19 02:07:21;;;;;;;18.65;13.98;;;12.00;99.90;;;;;;4878059;29;20032;-80
2021/11/19 02:10:36;;;;;;;20.23;14.82;;;12.00;99.90;;;;;;4895239;29;20029;-78
2021/11/19 02:13:24;;;;;;;19.20;14.02;;;12.00;99.90;;;;;;4879078;29;20043;-83
2021/11/19 02:15:58;;;;;;;18.92;14.73;;;12.00;99.90;;;;;;4899820;29;20473;-84
2021/11/19 02:18:32;;;;;;;15.55;12.82;;;12.00;99.90;;;;;;4900202;29;20377;-82
2021/11/19 02:21:13;;;;;;;19.35;15.52;;;12.10;99.90;;;;;;4898639;29;20032;-80
2021/11/19 02:23:46;;;;;;;22.70;16.70;;;12.10;99.90;;;;;;4900039;29;20080;-80
2021/11/19 02:26:15;;;;;;;25.00;16.20;;;12.00;99.90;;;;;;4881615;29;20013;-82
2021/11/19 02:28:43;;;;;;;24.77;17.20;;;12.00;99.90;;;;;;4881082;29;20511;-82
2021/11/19 02:31:27;;;;;;;21.38;16.05;;;12.00;99.90;;;;;;4881715;29;20180;-80
2021/11/19 02:33:56;;;;;;;21.88;17.63;;;12.00;99.90;;;;;;4883104;29;20032;-80
2021/11/19 02:36:59;;;;;;;21.52;16.50;;;12.00;99.90;;;;;;4882247;29;20536;-80
2021/11/19 02:39:28;;;;;;;23.17;16.73;;;12.00;99.90;;;;;;4883059;29;20069;-82
2021/11/19 02:41:59;;;;;;;21.45;16.92;;;12.00;99.90;;;;;;4882189;29;20474;-80
2021/11/19 02:44:27;;;;;;;24.33;18.05;;;12.00;99.90;;;;;;4882794;29;20036;-78
2021/11/19 02:46:59;;;;;;;24.77;18.27;;;12.00;99.90;;;;;;4899426;29;20115;-78
2021/11/19 02:49:25;;;;;;;23.50;17.50;;;12.00;99.90;;;;;;4899451;29;20071;-78
2021/11/19 02:51:51;;;;;;;21.58;16.52;;;12.00;99.90;;;;;;4899505;29;20017;-78
2021/11/19 02:54:20;;;;;;;29.02;18.00;;;12.00;99.90;;;;;;4882731;29;20028;-78
2021/11/19 02:56:47;;;;;;;28.23;19.10;;;12.00;99.90;;;;;;4881538;29;20036;-79
2021/11/19 02:59:14;;;;;;;20.83;16.50;;;12.00;99.90;;;;;;4898792;29;20024;-81
2021/11/19 03:01:52;;;;;;;23.38;17.52;;;12.00;99.90;;;;;;4899379;29;20033;-79
2021/11/19 03:04:23;;;;;;;31.02;19.45;;;12.00;99.90;;;;;;4881747;29;20032;-79
2021/11/19 03:06:52;;;;;;;25.42;18.60;;;11.90;99.90;;;;;;4882231;29;20405;-82
2021/11/19 03:09:28;;;;;;;23.38;17.13;;;12.00;99.90;;;;;;4881715;29;20025;-85
2021/11/19 03:11:54;;;;;;;23.42;17.92;;;12.00;99.90;;;;;;4881547;29;20488;-84
2021/11/19 03:14:22;;;;;;;23.23;17.75;;;12.00;99.90;;;;;;4881740;29;20037;-81
2021/11/19 03:16:48;;;;;;;21.30;18.10;;;12.00;99.90;;;;;;4881331;29;20040;-80
2021/11/19 03:19:15;;;;;;;25.25;18.13;;;12.00;99.90;;;;;;4898565;29;20025;-81
2021/11/19 03:21:42;;;;;;;22.38;16.63;;;12.00;99.90;;;;;;4898898;29;20385;-83
2021/11/19 03:24:09;;;;;;;21.10;17.00;;;12.00;99.90;;;;;;4897425;29;20089;-80
2021/11/19 03:26:36;;;;;;;25.73;18.88;;;12.10;99.90;;;;;;4882052;29;20028;-83
2021/11/19 03:29:04;;;;;;;22.13;17.35;;;12.10;99.90;;;;;;4898039;29;20049;-78
2021/11/19 03:31:31;;;;;;;22.73;18.45;;;12.10;99.90;;;;;;4881324;29;20084;-83
2021/11/19 03:33:58;;;;;;;19.17;15.73;;;12.10;99.90;;;;;;4881927;29;20021;-82
2021/11/19 03:36:24;;;;;;;23.02;18.80;;;12.10;99.90;;;;;;4881965;29;20123;-83
2021/11/19 03:38:54;;;;;;;23.73;17.80;;;12.10;99.90;;;;;;4881139;29;20040;-81
2021/11/19 03:41:23;;;;;;;24.35;19.95;;;12.10;99.90;;;;;;4881566;29;20084;-82
2021/11/19 03:43:54;;;;;;;21.17;17.33;;;12.10;99.90;;;;;;4881703;29;20017;-81
2021/11/19 03:46:26;;;;;;;23.50;19.17;;;12.10;99.90;;;;;;4897550;29;20037;-86
2021/11/19 03:48:52;;;;;;;20.52;18.13;;;12.10;99.90;;;;;;4881489;29;20269;-79
2021/11/19 03:51:23;;;;;;;28.27;21.63;;;12.10;99.90;;;;;;4881531;29;20089;-80
2021/11/19 03:53:49;;;;;;;25.40;20.85;;;12.10;99.90;;;;;;4880641;29;20024;-79
2021/11/19 03:56:15;;;;;;;24.38;20.38;;;12.10;99.90;;;;;;4880818;29;20084;-80
2021/11/19 03:58:44;;;;;;;25.63;21.50;;;12.10;99.90;;;;;;4881137;29;20025;-81
2021/11/19 04:01:30;;;;;;;24.27;20.77;;;12.10;99.90;;;;;;4880447;29;20025;-79
2021/11/19 04:03:55;;;;;;;25.60;22.05;;;12.10;99.90;;;;;;4881267;29;20028;-79
2021/11/19 04:06:22;;;;;;;27.50;22.90;;;12.10;99.90;;;;;;4897499;29;20032;-82
2021/11/19 04:08:48;;;;;;;25.88;21.70;;;12.10;99.90;;;;;;4880996;29;20025;-80
2021/11/19 04:11:15;;;;;;;26.00;22.98;;;12.10;99.90;;;;;;4881015;29;20029;-83
2021/11/19 04:13:41;;;;;;;25.80;21.23;;;12.10;99.90;;;;;;4880771;29;20025;-83
2021/11/19 04:16:11;;;;;;;27.83;21.48;;;12.10;99.90;;;;;;4881044;29;20043;-83
2021/11/19 04:18:37;;;;;;;25.95;22.27;;;12.20;99.90;;;;;;4880833;29;20040;-82
2021/11/19 04:21:03;;;;;;;29.83;24.17;;;12.10;99.90;;;;;;4880326;29;20032;-82
2021/11/19 04:23:29;;;;;;;30.00;23.23;;;12.10;99.90;;;;;;4881406;29;20037;-81
2021/11/19 04:25:57;;;;;;;27.20;22.17;;;12.10;99.90;;;;;;4880978;29;20473;-84
2021/11/19 04:28:23;;;;;;;33.10;23.55;;;12.10;99.90;;;;;;4880483;29;20442;-84
2021/11/19 04:30:50;;;;;;;28.17;21.65;;;12.10;99.90;;;;;;4881051;29;20111;-83
2021/11/19 04:33:18;;;;;;;24.38;21.77;;;12.10;99.90;;;;;;4880734;29;20035;-82
2021/11/19 04:35:44;;;;;;;23.77;20.45;;;12.10;99.90;;;;;;4896114;29;20028;-82
2021/11/19 04:38:10;;;;;;;30.73;21.40;;;12.10;99.90;;;;;;4880595;29;20060;-80
2021/11/19 04:40:36;;;;;;;26.40;21.80;;;12.20;99.90;;;;;;4880610;29;20032;-79
2021/11/19 04:43:03;;;;;;;27.40;22.27;;;12.20;99.90;;;;;;4896645;29;20029;-84
2021/11/19 04:45:30;;;;;;;26.65;22.10;;;12.20;99.90;;;;;;4880713;29;20473;-82
2021/11/19 04:47:57;;;;;;;31.55;23.30;;;12.20;99.90;;;;;;4880543;29;20036;-79
2021/11/19 04:50:26;;;;;;;29.88;22.92;;;12.20;99.90;;;;;;4896881;29;20043;-82
2021/11/19 04:52:52;;;;;;;27.58;23.23;;;12.20;99.90;;;;;;4897440;29;20500;-83
2021/11/19 04:55:18;;;;;;;25.27;22.55;;;12.10;99.90;;;;;;4896229;29;20383;-79
2021/11/19 04:57:44;;;;;;;25.80;23.00;;;12.10;99.90;;;;;;4880611;29;20039;-80
2021/11/19 05:00:15;;;;;;;31.27;23.58;;;12.10;99.90;;;;;;4880213;29;20025;-83
2021/11/19 05:02:41;;;;;;;30.73;24.45;;;12.10;99.90;;;;;;4879750;29;20029;-84
2021/11/19 05:05:07;;;;;;;32.03;25.02;;;12.10;99.90;;;;;;4879960;29;20587;-84
2021/11/19 05:07:32;;;;;;;27.00;22.58;;;12.10;99.90;;;;;;4897160;29;20025;-82
2021/11/19 05:09:58;;;;;;;24.70;20.98;;;12.10;99.90;;;;;;4879429;29;20036;-79
2021/11/19 05:12:34;;;;;;;25.70;22.98;;;12.10;99.90;;;;;;4880546;29;20024;-83
2021/11/19 05:14:59;;;;;;;31.05;23.38;;;12.10;99.90;;;;;;4896463;29;20489;-80
2021/11/19 05:17:25;;;;;;;24.80;21.65;;;12.10;99.90;;;;;;4879720;29;20041;-82
2021/11/19 05:19:51;;;;;;;30.35;22.73;;;12.10;99.90;;;;;;4879999;29;20024;-81
2021/11/19 05:22:17;;;;;;;25.80;22.42;;;12.10;99.90;;;;;;4879990;29;20058;-83
2021/11/19 05:24:44;;;;;;;25.65;22.17;;;12.10;99.90;;;;;;4879277;29;20056;-84
2021/11/19 05:27:09;;;;;;;28.33;21.55;;;12.10;99.90;;;;;;4879817;29;20024;-79
2021/11/19 05:29:36;;;;;;;28.10;23.40;;;12.10;99.90;;;;;;4879882;29;20033;-83
2021/11/19 05:32:02;;;;;;;23.27;20.27;;;12.10;99.90;;;;;;4878594;29;20035;-84
2021/11/19 05:34:28;;;;;;;26.63;21.90;;;12.10;99.90;;;;;;4880156;29;20031;-81
2021/11/19 05:36:54;;;;;;;25.35;21.50;;;12.10;99.90;;;;;;4896781;29;20033;-81
2021/11/19 05:39:20;;;;;;;23.98;19.88;;;12.10;99.90;;;;;;4878668;29;20485;-83
2021/11/19 05:41:47;;;;;;;28.27;21.00;;;12.10;99.90;;;;;;4879917;29;20035;-81
2021/11/19 05:44:14;;;;;;;22.77;19.25;;;12.10;99.90;;;;;;4879490;29;20074;-82
2021/11/19 05:46:42;;;;;;;24.33;19.90;;;12.10;99.90;;;;;;4878849;29;20389;-80
2021/11/19 05:49:12;;;;;;;22.95;19.52;;;12.20;99.90;;;;;;4879583;29;20036;-80
2021/11/19 05:51:38;;;;;;;23.27;20.77;;;12.20;99.90;;;;;;4879367;29;20021;-79
2021/11/19 05:54:07;;;;;;;24.33;20.02;;;12.20;99.90;;;;;;4879065;29;20036;-80
2021/11/19 05:56:33;;;;;;;24.48;21.45;;;12.20;99.90;;;;;;4879788;29;20036;-79
2021/11/19 05:58:59;;;;;;;24.25;21.48;;;12.10;99.90;;;;;;4896034;29;20094;-80
2021/11/19 06:01:26;;;;;;;24.65;19.70;;;12.20;99.90;;;;;;4878856;29;20433;-84
2021/11/19 06:03:52;;;;;;;23.23;20.08;;;12.20;99.90;;;;;;4894559;29;20024;-84
2021/11/19 06:06:18;;;;;;;22.13;19.52;;;12.20;99.90;;;;;;4890705;29;20096;-78
2021/11/19 06:08:45;;;;;;;22.92;20.25;;;12.20;99.90;;;;;;4896056;29;20434;-79
2021/11/19 06:11:22;;;;;;;26.40;22.92;;;12.20;99.90;;;;;;4879281;29;20027;-84
2021/11/19 06:13:57;;;;;;;24.50;20.95;;;12.20;99.90;;;;;;4878907;29;20025;-81
2021/11/19 06:16:28;;;;;;;24.17;21.65;;;12.20;99.90;;;;;;4905686;29;20036;-80
2021/11/19 06:18:59;;;;;;;27.80;23.80;;;12.20;99.90;;;;;;4888078;29;20029;-83
2021/11/19 06:21:30;;;;;;;27.08;23.05;;;12.20;99.90;;;;;;4878956;29;20085;-83
2021/11/19 06:24:00;;;;;;;24.98;21.90;;;12.20;99.90;;;;;;4896125;29;20028;-82
2021/11/19 06:26:27;;;;;;;24.58;21.55;;;12.20;99.90;;;;;;4879399;29;20025;-80
2021/11/19 06:29:02;;;;;;;24.08;21.52;;;12.20;99.90;;;;;;4889139;29;20628;-82
2021/11/19 06:31:28;;;;;;;25.25;22.55;;;12.20;99.90;;;;;;4898371;29;20495;-81
2021/11/19 06:33:54;;;;;;;27.27;22.60;;;12.20;99.90;;;;;;4897807;29;20032;-78
2021/11/19 06:36:19;;;;;;;23.95;21.30;;;12.20;99.90;;;;;;4897677;29;20039;-79
2021/11/19 06:38:47;;;;;;;24.20;21.23;;;12.20;99.90;;;;;;4897913;29;20067;-81
2021/11/19 06:41:14;;;;;;;23.33;20.70;;;12.20;99.90;;;;;;4897218;29;20088;-78
2021/11/19 06:43:40;;;;;;;24.90;22.35;;;12.20;99.90;;;;;;4898195;29;20031;-79
2021/11/19 06:46:06;;;;;;;22.52;19.75;;;12.20;99.90;;;;;;4914729;29;20123;-79
2021/11/19 06:48:32;;;;;;;25.23;20.85;;;12.20;99.90;;;;;;4897717;29;20032;-80
2021/11/19 06:50:59;;;;;;;24.92;22.20;;;12.20;99.90;;;;;;4897706;29;20099;-77
2021/11/19 06:53:27;;;;;;;23.85;21.27;;;12.20;99.90;;;;;;4890664;29;20036;-80
2021/11/19 06:55:52;;;;;;;24.98;20.83;;;12.30;99.90;;;;;;4878257;29;20513;-81
2021/11/19 06:58:18;;;;;;;24.50;21.45;;;12.20;99.90;;;;;;4879776;29;20040;-79
2021/11/19 07:00:46;;;;;;;24.63;21.35;;;12.30;99.90;;;;;;4882526;29;20025;-79
2021/11/19 07:03:14;;;;;;;28.27;22.73;;;12.30;99.90;;;;;;4898648;29;20103;-79
2021/11/19 07:05:41;;;;;;;25.55;22.90;;;12.20;99.90;;;;;;4882325;29;20119;-82
2021/11/19 07:08:09;;;;;;;24.35;20.77;;;12.20;99.90;;;;;;4881863;29;20377;-83
2021/11/19 07:10:36;;;;;;;23.25;20.75;;;12.20;99.90;;;;;;4881827;29;20093;-80
2021/11/19 07:13:02;;;;;;;23.38;20.95;;;12.20;99.90;;;;;;4881852;29;20024;-82
2021/11/19 07:15:28;;;;;;;23.73;21.08;;;12.20;99.90;;;;;;4899367;29;20036;-82
2021/11/19 07:17:54;;;;;;;22.70;20.30;;;12.30;99.90;;;;;;4881710;29;20481;-82
2021/11/19 07:20:23;;;;;;;21.23;18.88;;;12.30;99.90;;;;;;4882077;29;20032;-82
2021/11/19 07:22:49;;;;;;;23.13;20.73;;;12.30;99.90;;;;;;4881667;29;20466;-79
2021/11/19 07:25:18;;;;;;;22.67;20.33;;;12.30;99.90;;;;;;4881953;29;20111;-82
2021/11/19 07:27:45;;;;;;;22.17;19.90;;;12.30;99.90;;;;;;4898775;29;20025;-78
2021/11/19 07:30:19;;;;;;;21.75;18.98;;;12.40;99.90;;;;;;4881031;29;20036;-82
2021/11/19 07:32:45;;;;;;;22.05;19.73;;;12.30;99.90;;;;;;4881696;29;20362;-83
2021/11/19 07:35:12;;;;;;;26.73;21.05;;;12.30;99.90;;;;;;4881912;29;20381;-81
2021/11/19 07:37:38;;;;;;;24.08;20.75;;;12.40;99.90;;;;;;4898150;29;20090;-78
2021/11/19 07:40:07;;;;;;;20.73;18.48;;;12.40;99.90;;;;;;4898353;29;20032;-81
2021/11/19 07:42:32;;;;;;;22.98;20.55;;;12.40;99.90;;;;;;4881714;29;20076;-79
2021/11/19 07:44:58;;;;;;;24.15;21.58;;;12.40;99.90;;;;;;4881096;29;20381;-81
2021/11/19 07:47:23;;;;;;;27.90;22.17;;;12.40;99.90;;;;;;4881554;29;20033;-81
2021/11/19 07:49:49;;;;;;;23.00;20.58;;;12.40;99.90;;;;;;4881665;29;20060;-81
2021/11/19 07:52:15;;;;;;;22.45;20.05;;;12.30;99.90;;;;;;4880957;29;20035;-79
2021/11/19 07:54:40;;;;;;;22.85;20.30;;;12.30;99.90;;;;;;4898456;29;20028;-84
2021/11/19 07:57:06;;;;;;;24.13;19.23;;;12.30;99.90;;;;;;4897371;29;20393;-83
2021/11/19 07:59:33;;;;;;;22.17;19.88;;;12.40;99.90;;;;;;4896449;29;20052;-78
2021/11/19 08:02:02;;;;;;;21.58;19.27;;;12.40;99.90;;;;;;4898263;29;20067;-82
2021/11/19 08:04:30;;;;;;;23.50;20.25;;;12.40;99.90;;;;;;4897461;29;20028;-88
2021/11/19 08:06:57;;;;;;;19.63;17.63;;;12.40;99.90;;;;;;4895830;29;20047;-81
2021/11/19 08:09:23;;;;;;;21.77;19.52;;;12.40;99.90;;;;;;4887914;29;20759;-82
2021/11/19 08:11:49;;;;;;;24.00;19.88;;;12.40;99.90;;;;;;4897876;29;20381;-83
2021/11/19 08:14:15;;;;;;;23.00;18.20;;;12.40;99.90;;;;;;4880517;29;20032;-82
2021/11/19 08:16:48;;;;;;;19.80;17.70;;;12.50;99.90;;;;;;4879396;29;20598;-83
2021/11/19 08:19:38;;;;;;;18.48;16.63;;;12.50;99.90;;;;;;4878947;29;20111;-83
2021/11/19 08:22:04;;;;;;;19.90;17.50;;;12.50;99.90;;;;;;4878826;29;20040;-82
2021/11/19 08:24:31;;;;;;;19.15;17.35;;;12.50;99.90;;;;;;4881393;29;20382;-80
2021/11/19 08:27:04;;;;;;;27.23;20.15;;;12.60;99.90;;;;;;4878431;29;20047;-84
2021/11/19 08:29:32;;;;;;;21.05;17.80;;;12.60;99.90;;;;;;4878765;29;20025;-82
2021/11/19 08:32:00;;;;;;;22.45;18.45;;;12.60;99.90;;;;;;4879931;29;20029;-85
2021/11/19 08:34:25;;;;;;;20.30;18.23;;;12.60;99.90;;;;;;4880664;29;20025;-81
2021/11/19 08:36:52;;;;;;;19.73;17.63;;;12.60;99.90;;;;;;4880378;29;20043;-81
2021/11/19 08:39:21;;;;;;;22.63;19.10;;;12.60;99.90;;;;;;4880289;29;20041;-80
2021/11/19 08:41:47;;;;;;;18.80;16.85;;;12.60;99.90;;;;;;4878218;29;20085;-82
2021/11/19 08:44:14;;;;;;;19.00;17.00;;;12.60;99.90;;;;;;4880120;29;20373;-85
2021/11/19 08:46:43;;;;;;;17.55;15.52;;;12.60;99.90;;;;;;4879227;29;20063;-82
2021/11/19 08:49:13;;;;;;;17.80;14.85;;;12.70;99.90;;;;;;4878654;29;20067;-84
2021/11/19 08:51:39;;;;;;;16.35;14.75;;;12.70;99.90;;;;;;4863063;29;20077;-83
2021/11/19 08:54:08;;;;;;;18.20;16.30;;;12.70;99.90;;;;;;4879323;29;20042;-82
2021/11/19 08:56:37;;;;;;;17.05;15.35;;;12.70;99.90;;;;;;4878890;29;20063;-81
2021/11/19 08:59:05;;;;;;;18.55;16.50;;;12.70;99.90;;;;;;4879329;29;20060;-86
2021/11/19 09:01:31;;;;;;;15.52;14.02;;;12.70;99.90;;;;;;4879538;29;20031;-83
2021/11/19 09:03:56;;;;;;;17.20;15.27;;;12.70;99.90;;;;;;4847486;29;20025;-78
2021/11/19 09:06:22;;;;;;;16.15;14.52;;;12.70;99.90;;;;;;4876131;29;20077;-79
2021/11/19 09:08:49;;;;;;;17.58;15.68;;;12.80;99.90;;;;;;4878817;29;20028;-78
2021/11/19 09:11:19;;;;;;;17.67;15.88;;;12.80;99.90;;;;;;4879671;29;20486;-80
2021/11/19 09:13:47;;;;;;;19.15;15.88;;;12.80;99.90;;;;;;4880685;29;20031;-82
2021/11/19 09:16:15;;;;;;;18.98;15.60;;;12.80;99.90;;;;;;4879500;29;20092;-83
2021/11/19 09:19:06;;;;;;;16.23;14.63;;;12.80;99.90;;;;;;4896876;29;20025;-78
2021/11/19 09:21:57;;;;;;;17.73;15.30;;;12.80;99.90;;;;;;4880212;29;20025;-83
2021/11/19 09:24:28;;;;;;;15.63;14.00;;;12.80;99.90;;;;;;4880435;29;20483;-80
2021/11/19 09:26:57;;;;;;;17.73;14.32;;;12.90;99.90;;;;;;4879812;29;20036;-86
2021/11/19 09:29:55;;;;;;;16.90;15.10;;;12.90;99.90;;;;;;4896682;29;20024;-75
2021/11/19 09:32:23;;;;;;;18.90;16.17;;;12.90;99.90;;;;;;4863768;29;20040;-82
2021/11/19 09:34:53;;;;;;;16.77;14.98;;;12.90;99.90;;;;;;4879514;29;20025;-80
2021/11/19 09:37:20;;;;;;;17.65;13.63;;;13.00;99.90;;;;;;4879319;29;20056;-82
2021/11/19 09:39:47;;;;;;;17.45;15.57;;;13.00;99.90;;;;;;4879017;29;20404;-82
2021/11/19 09:42:34;;;;;;;17.42;14.15;;;13.00;99.90;;;;;;4892991;29;20541;-83
2021/11/19 09:45:38;;;;;;;17.25;15.18;;;13.00;99.90;;;;;;4877804;29;20393;-78
2021/11/19 09:48:31;;;;;;;15.55;13.10;;;13.10;99.90;;;;;;4878980;29;20569;-80
2021/11/19 09:51:34;;;;;;;14.25;12.50;;;13.10;99.90;;;;;;4877519;29;20478;-82
2021/11/19 09:54:25;;;;;;;14.48;12.98;;;13.20;99.90;;;;;;4879268;29;20048;-81
2021/11/19 09:57:11;;;;;;;14.13;12.60;;;13.20;99.90;;;;;;4895527;29;20044;-76
2021/11/19 09:59:43;;;;;;;16.42;12.15;;;13.30;99.90;;;;;;4879279;29;20476;-76
2021/11/19 10:02:46;;;;;;;13.93;12.52;;;13.30;99.90;;;;;;4894724;29;20035;-80
2021/11/19 10:05:28;;;;;;;11.77;10.68;;;13.40;99.90;;;;;;4895346;29;20029;-81
2021/11/19 10:07:59;;;;;;;13.20;11.13;;;13.40;99.90;;;;;;4878839;29;20036;-78
2021/11/19 10:10:51;;;;;;;16.30;12.00;;;13.40;99.90;;;;;;4894640;29;20028;-90
2021/11/19 10:13:45;;;;;;;13.23;11.32;;;13.50;99.90;;;;;;4879842;29;20841;-89
2021/11/19 10:16:26;;;;;;;11.82;10.63;;;13.50;99.90;;;;;;4877186;29;20025;-86
2021/11/19 10:18:56;;;;;;;13.90;10.57;;;13.50;99.90;;;;;;4860620;29;20040;-81
2021/11/19 10:21:30;;;;;;;14.40;11.35;;;13.50;99.90;;;;;;4861442;29;20029;-89
2021/11/19 10:24:03;;;;;;;15.70;11.25;;;13.60;99.90;;;;;;4861406;29;20083;-83
2021/11/19 10:26:35;;;;;;;15.13;11.88;;;13.60;99.90;;;;;;4877724;29;20033;-91
2021/11/19 10:29:24;;;;;;;14.30;10.18;;;13.60;99.90;;;;;;4879326;29;20459;-88
2021/11/19 10:31:52;;;;;;;13.27;10.05;;;13.60;99.90;;;;;;4878900;29;20097;-91
2021/11/19 10:34:32;;;;;;;12.20;9.25;;;13.70;99.90;;;;;;4901001;29;20032;-89
2021/11/19 10:37:10;;;;;;;10.93;9.52;;;13.70;99.90;;;;;;4875825;29;20506;-89
2021/11/19 10:40:13;;;;;;;11.20;9.18;;;13.70;99.90;;;;;;4877885;29;20032;-92
2021/11/19 10:43:20;;;;;;;12.35;8.90;;;13.80;99.90;;;;;;4881833;29;20037;-87
2021/11/19 10:46:05;;;;;;;11.82;10.00;;;13.70;99.90;;;;;;4846051;29;20044;-81
2021/11/19 10:49:00;;;;;;;13.52;9.48;;;13.80;99.90;;;;;;4880290;29;20024;-87
2021/11/19 10:51:56;;;;;;;10.45;8.60;;;13.80;99.90;;;;;;4878135;29;20039;-85
2021/11/19 10:54:46;;;;;;;10.82;8.68;;;13.80;99.90;;;;;;4891182;29;20060;-81
2021/11/19 10:57:50;;;;;;;13.35;8.60;;;13.80;99.90;;;;;;4882615;29;20044;-83
2021/11/19 11:00:33;;;;;;;11.55;7.85;;;13.80;99.90;;;;;;4879901;29;20579;-84
2021/11/19 11:03:06;;;;;;;10.98;8.40;;;13.80;99.90;;;;;;4898082;29;20036;-85
2021/11/19 11:05:42;;;;;;;10.98;7.97;;;13.90;99.90;;;;;;4881027;29;20035;-82
2021/11/19 11:08:24;;;;;;;10.38;7.55;;;13.90;99.90;;;;;;4897951;29;20116;-82
2021/11/19 11:10:54;;;;;;;8.85;7.40;;;13.80;99.90;;;;;;4881437;29;20028;-85
2021/11/19 11:13:34;;;;;;;10.60;7.45;;;13.80;99.90;;;;;;4898634;29;20588;-81
2021/11/19 11:16:26;;;;;;;12.88;8.00;;;13.90;99.90;;;;;;4867393;29;20402;-81
2021/11/19 11:18:59;;;;;;;12.85;8.07;;;13.90;99.90;;;;;;4862966;29;20589;-82
2021/11/19 11:21:38;;;;;;;10.95;7.80;;;13.90;99.90;;;;;;4880152;29;20036;-87
2021/11/19 11:24:27;;;;;;;9.77;7.18;;;14.00;99.90;;;;;;4863217;29;20029;-92
2021/11/19 11:27:11;;;;;;;10.13;7.45;;;14.00;99.90;;;;;;4873153;29;20032;-87
2021/11/19 11:29:51;;;;;;;10.23;7.22;;;14.00;99.90;;;;;;4882489;29;20116;-90
2021/11/19 11:32:31;;;;;;;9.30;6.65;;;13.90;99.90;;;;;;4882229;29;20024;-90
2021/11/19 11:35:06;;;;;;;11.02;6.50;;;13.90;99.90;;;;;;4882148;29;20036;-85
2021/11/19 11:38:05;;;;;;;7.75;6.75;;;13.90;99.90;;;;;;4879750;29;20147;-88
2021/11/19 11:40:38;;;;;;;11.10;6.47;;;13.90;99.90;;;;;;4880010;29;20045;-83
2021/11/19 11:43:32;;;;;;;7.50;5.85;;;13.90;99.90;;;;;;4877706;29;20044;-89
2021/11/19 11:46:21;;;;;;;7.85;5.70;;;13.80;99.90;;;;;;4878862;29;20527;-80
2021/11/19 11:49:06;;;;;;;9.13;5.50;;;13.90;99.90;;;;;;4877168;29;20017;-80
2021/11/19 11:52:08;;;;;;;9.07;6.38;;;13.90;99.90;;;;;;4878966;29;20043;-82
2021/11/19 11:55:16;;;;;;;10.27;6.47;;;14.00;99.90;;;;;;4878184;29;20037;-82
2021/11/19 11:57:47;;;;;;;9.02;6.05;;;14.00;99.90;;;;;;4861021;29;20040;-82
2021/11/19 12:00:16;;;;;;;8.80;6.75;;;14.10;99.90;;;;;;4878945;29;20057;-83
2021/11/19 12:02:45;;;;;;;8.55;5.88;;;14.20;99.90;;;;;;4878969;29;20025;-87
2021/11/19 12:05:51;;;;;;;11.65;6.07;;;14.40;99.90;;;;;;4867374;29;20093;-84
2021/11/19 12:08:22;;;;;;;7.85;6.43;;;14.40;99.90;;;;;;4788501;29;20046;-86
2021/11/19 12:11:24;;;;;;;10.48;6.47;;;14.40;99.90;;;;;;4852230;29;20120;-83
2021/11/19 12:14:02;;;;;;;7.18;6.13;;;14.30;99.90;;;;;;4864985;29;20064;-79
2021/11/19 12:16:53;;;;;;;9.30;6.38;;;14.20;99.90;;;;;;4862829;29;20037;-81
2021/11/19 12:19:36;;;;;;;6.43;5.30;;;14.20;99.90;;;;;;4857896;29;20482;-78
2021/11/19 12:22:12;;;;;;;8.40;5.40;;;14.10;99.90;;;;;;4860539;29;20036;-82
2021/11/19 12:25:00;;;;;;;9.18;6.32;;;14.10;99.90;;;;;;4862488;29;20161;-81
2021/11/19 12:27:34;;;;;;;10.25;5.82;;;14.00;99.90;;;;;;4836070;29;20041;-82
2021/11/19 12:30:00;;;;;;;8.85;6.03;;;14.00;99.90;;;;;;4861869;29;20040;-82
2021/11/19 12:32:39;;;;;;;7.93;5.82;;;14.00;99.90;;;;;;4862039;29;20025;-81
2021/11/19 12:35:29;;;;;;;7.70;5.78;;;13.90;99.90;;;;;;4878431;29;20060;-81
2021/11/19 12:38:08;;;;;;;8.85;5.30;;;14.00;99.90;;;;;;4879178;29;20123;-81
2021/11/19 12:40:55;;;;;;;9.02;5.20;;;13.90;99.90;;;;;;4896474;29;20455;-81
2021/11/19 12:43:36;;;;;;;7.63;4.85;;;14.00;99.90;;;;;;4880391;29;20064;-81
2021/11/19 12:46:36;;;;;;;6.00;4.97;;;13.90;99.90;;;;;;4879714;29;20089;-81
2021/11/19 12:49:27;;;;;;;8.15;4.95;;;14.00;99.90;;;;;;4879991;29;20351;-80
2021/11/19 12:52:09;;;;;;;6.57;5.35;;;14.00;99.90;;;;;;4879865;29;20398;-81
2021/11/19 12:54:42;;;;;;;9.05;5.90;;;13.90;99.90;;;;;;4879607;29;20493;-80
2021/11/19 12:57:33;;;;;;;9.82;5.20;;;14.00;99.90;;;;;;4877402;29;20032;-81